Flight Track Log - Related Links

Times and Time Zones

All times are in EDT time to prevent confusion due to time zone crossing. See the SWA1729 flight status page for this flight to view local times or setup timezone preferences in your user account.

Time Position Orientation Groundspeed Altitude Reporting Facility
EDT Latitude Longitude Course Direction KTS MPH feet Rate Location/Type
Sun 10:08:17 PM 29.6156 -95.3011 208° Southwest 165 190 1,800  Level Houston Center
Sun 10:09:12 PM 29.5656 -95.3289 206° Southwest 249 287 3,600 2,330 Climbing Houston Center
Sun 10:10:00 PM 29.5547 -95.3883 258° West 258 297 5,800 3,083 Climbing Houston Center
Sun 10:11:01 PM 29.5592 -95.4731 273° West 276 318 9,200 2,754 Climbing Houston Center
Sun 10:12:02 PM 29.6006 -95.5511 301° West 286 329 11,400 2,098 Climbing Houston Center
Sun 10:13:04 PM 29.6481 -95.6439 301° West 327 376 13,500 2,098 Climbing Houston Center
Sun 10:14:05 PM 29.6975 -95.7408 300° West 348 400 15,700 2,410 Climbing Houston Center
Sun 10:15:06 PM 29.7511 -95.8439 301° West 373 429 18,400 2,410 Climbing Houston Center
Sun 10:16:07 PM 29.8031 -95.9461 300° West 370 426 20,600 2,115 Climbing Houston Center
Sun 10:17:08 PM 29.8619 -96.0625 300° West 383 441 22,700 1,869 Climbing Houston Center
Sun 10:18:09 PM 29.9175 -96.1700 301° West 390 449 24,400 1,574 Climbing Houston Center
Sun 10:19:10 PM 29.9408 -96.2936 282° West 402 463 25,900 1,475 Climbing Houston Center
Sun 10:20:11 PM 29.9483 -96.4250 274° West 410 472 27,400 1,672 Climbing Houston Center
Sun 10:21:12 PM 29.9556 -96.5564 274° West 412 474 29,300 1,869 Climbing Houston Center
Sun 10:22:13 PM 29.9853 -96.7050 283° West 402 463 31,200 1,525 Climbing Houston Center
Sun 10:23:14 PM 30.0117 -96.8283 284° West 399 459 32,400 1,230 Climbing Houston Center
Sun 10:24:15 PM 30.0367 -96.9539 283° West 403 464 33,700 1,230 Climbing Houston Center
Sun 10:25:16 PM 30.0628 -97.0764 284° West 399 459 34,900 1,122 Climbing Houston Center
Sun 10:26:18 PM 30.0886 -97.1978 284° West 394 453 36,000 537 Climbing Houston Center
Sun 10:27:19 PM 30.1136 -97.3247 283° West 395 455 36,000  Level Houston Center
Sun 10:28:20 PM 30.1383 -97.4483 283° West 392 451 36,000  Level Houston Center
Sun 10:29:21 PM 30.1644 -97.5725 284° West 394 453 36,000  Level Houston Center
Sun 10:30:22 PM 30.1894 -97.6958 283° West 389 448 36,000  Level Houston Center
Sun 10:31:23 PM 30.2136 -97.8214 283° West 393 452 36,000  Level Houston Center
Sun 10:32:24 PM 30.2414 -97.9597 283° West 391 450 36,000  Level Houston Center
Sun 10:33:25 PM 30.2661 -98.0833 283° West 394 453 36,000  Level Houston Center
Sun 10:34:26 PM 30.2906 -98.2072 283° West 395 455 36,000  Level Houston Center
Sun 10:35:28 PM 30.3128 -98.3242 282° West 401 461 36,000  Level Houston Center
Sun 10:36:29 PM 30.3389 -98.4500 284° West 398 458 36,000  Level Houston Center
Sun 10:37:30 PM 30.3628 -98.5781 282° West 401 461 36,000  Level Houston Center
Sun 10:38:31 PM 30.3878 -98.7053 283° West 401 461 36,000  Level Houston Center
Sun 10:39:32 PM 30.4128 -98.8336 283° West 405 466 36,000  Level Houston Center
Sun 10:40:33 PM 30.4386 -98.9628 283° West 408 470 36,000  Level Houston Center
Sun 10:41:34 PM 30.4661 -99.1144 282° West 409 471 36,000  Level Houston Center
Sun 10:42:35 PM 30.4914 -99.2433 283° West 407 468 36,000  Level Houston Center
Sun 10:43:36 PM 30.5161 -99.3717 283° West 409 471 36,000  Level Houston Center
Sun 10:44:37 PM 30.5403 -99.5003 282° West 410 472 36,000  Level Houston Center
Sun 10:45:39 PM 30.5647 -99.6294 282° West 411 473 36,000  Level Houston Center
Sun 10:46:40 PM 30.5856 -99.7553 281° West 403 464 36,000  Level Houston Center
Sun 10:47:41 PM 30.6103 -99.8800 283° West 399 459 36,000  Level Houston Center
Sun 10:48:42 PM 30.6361 -100.0067 283° West 405 466 36,000  Level Houston Center
Sun 10:49:43 PM 30.6628 -100.1300 284° West 398 458 36,000  Level Houston Center
Sun 10:50:44 PM 30.6861 -100.2550 282° West 394 453 36,000  Level Houston Center
Sun 10:51:45 PM 30.7158 -100.4050 283° West 398 458 36,000  Level Houston Center
Sun 10:52:46 PM 30.7417 -100.5267 284° West 390 449 36,000  Level Houston Center
Sun 10:53:47 PM 30.7661 -100.6517 283° West 393 452 36,000  Level Houston Center
Sun 10:54:48 PM 30.7850 -100.7783 280° West 395 455 36,000  Level Houston Center
Sun 10:55:49 PM 30.8139 -100.9025 285° West 397 457 36,000  Level Houston Center
Sun 10:56:50 PM 30.8381 -101.0283 283° West 397 457 36,000  Level Houston Center
Sun 10:57:51 PM 30.8628 -101.1558 283° West 400 460 36,000  Level Houston Center
Sun 10:58:52 PM 30.8892 -101.2794 284° West 394 453 36,000  Level Houston Center
Sun 10:59:54 PM 30.9133 -101.4072 282° West 400 460 36,000  Level Houston Center
Sun 11:00:55 PM 30.9394 -101.5550 282° West 391 450 36,000 -49 Level Houston Center
Sun 11:01:56 PM 30.9622 -101.6811 282° West 394 453 35,900  Descending Houston Center
Sun 11:02:57 PM 30.9872 -101.8069 283° West 396 456 36,000 49 Climbing Houston Center
Sun 11:03:58 PM 31.0111 -101.9331 282° West 398 458 36,000  Level Houston Center
Sun 11:04:59 PM 31.0342 -102.0600 282° West 398 458 36,000  Level Houston Center
Sun 11:06:00 PM 31.0578 -102.1881 282° West 401 461 36,000  Level Houston Center
Sun 11:07:00 PM 31.0814 -102.3169 282° West 402 463 36,000  Level Houston Center
Sun 11:08:02 PM 31.1036 -102.4444 282° West 398 458 36,000  Level Houston Center
Sun 11:09:03 PM 31.1264 -102.5725 282° West 400 460 36,000  Level Houston Center
Sun 11:10:04 PM 31.1508 -102.6975 283° West 395 455 36,000  Level Houston Center
Sun 11:11:15 PM 31.1769 -102.8472 282° West 394 453 36,000  Level Albuquerque Center
Sun 11:12:17 PM 31.1997 -102.9725 282° West 395 455 36,000  Level Albuquerque Center
Sun 11:13:18 PM 31.2206 -103.0981 281° West 394 453 36,000  Level Albuquerque Center
Sun 11:14:20 PM 31.2428 -103.2211 282° West 390 449 36,000  Level Albuquerque Center
Sun 11:15:21 PM 31.2639 -103.3469 281° West 393 452 36,000  Level Albuquerque Center
Sun 11:16:22 PM 31.2847 -103.4703 281° West 389 448 36,000  Level Albuquerque Center
Sun 11:17:24 PM 31.3108 -103.6200 282° West 391 450 36,000  Level Albuquerque Center
Sun 11:18:25 PM 31.3333 -103.7436 282° West 390 449 36,000  Level Albuquerque Center
Sun 11:19:27 PM 31.3533 -103.8714 280° West 392 451 36,000  Level Albuquerque Center
Sun 11:20:28 PM 31.3764 -103.9983 282° West 396 456 36,000  Level Albuquerque Center
Sun 11:21:29 PM 31.3986 -104.1256 282° West 399 459 36,000  Level Albuquerque Center
Sun 11:22:31 PM 31.4211 -104.2553 282° West 405 466 36,000  Level Albuquerque Center
Sun 11:23:32 PM 31.4431 -104.3858 281° West 409 471 36,000  Level Albuquerque Center
Sun 11:24:34 PM 31.4619 -104.5150 280° West 408 470 36,000  Level Albuquerque Center
Sun 11:25:35 PM 31.4742 -104.6447 276° West 407 468 36,000 -541 Level Albuquerque Center
Sun 11:26:36 PM 31.4906 -104.8019 277° West 407 468 34,900 -2,146 Descending Albuquerque Center
Sun 11:27:38 PM 31.5028 -104.9294 276° West 404 465 31,600 -3,366 Descending Albuquerque Center
Sun 11:28:39 PM 31.5153 -105.0567 277° West 399 459 28,000 -3,197 Descending Albuquerque Center
Sun 11:29:40 PM 31.5292 -105.1864 277° West 403 464 25,100 -2,683 Descending Albuquerque Center
Sun 11:30:42 PM 31.5408 -105.3097 276° West 392 451 22,500 -2,661 Descending Albuquerque Center
Sun 11:31:35 PM 31.5497 -105.4325 275° West 361 415 20,000 -2,789 Descending Albuquerque Center
Sun 11:31:53 PM 31.5542 -105.4664 279° West 356 410 19,200 -2,229 Descending Albuquerque Center
Sun 11:32:45 PM 31.5633 -105.5431 278° West 355 409 17,400 -2,442 Descending Albuquerque Center
Sun 11:33:46 PM 31.5767 -105.6769 277° West 347 399 14,600 -2,557 Descending Albuquerque Center
Sun 11:34:47 PM 31.5869 -105.7850 276° West 336 387 12,200 -2,049 Descending Albuquerque Center
Sun 11:35:49 PM 31.6269 -105.8794 296° West 326 375 10,400 -1,317 Descending Albuquerque Center
Sun 11:36:50 PM 31.6675 -105.9592 301° West 281 323 9,500 -1,024 Descending Albuquerque Center
Sun 11:37:52 PM 31.7031 -106.0303 300° West 254 292 8,300 -780 Descending Albuquerque Center
Sun 11:38:53 PM 31.7344 -106.0939 300° West 228 262 7,900 -492 Descending Albuquerque Center
Sun 11:39:54 PM 31.7567 -106.1597 292° West 218 251 7,300 -780 Descending Albuquerque Center
Sun 11:40:56 PM 31.7783 -106.2228 292° West 211 243 6,300 -1,024 Descending Albuquerque Center
Sun 11:41:57 PM 31.7967 -106.2842 289° West 162 186 5,200 -885 Descending Albuquerque Center
Sun 11:42:58 PM 31.7983 -106.3233 273° West 125 144 4,500 -634 Descending Albuquerque Center
Sun 11:44:00 PM 31.8019 -106.3664 276° West 126 145 3,900 -581 Descending Albuquerque Center
Sun 11:45:00 PM 31.8000 -106.3667 270° West  Level FlightAware Approximate
Sun 11:52:00 PM 31.8072 -106.3764 270° West  Level Estimated
Sun 11:53:00 PM 31.8072 -106.3764 270° West  Level Estimated
Sun 11:54:00 PM 31.8072 -106.3764 270° West  Level Estimated
Sun 11:55:00 PM 31.8072 -106.3764 270° West  Level Estimated

Login

Don't have an account? Register now (free) for customized features, flight alerts, and more!